N623AZ KCPM-KPHX
Flight info
| Callsign | N623AZ |
|---|---|
| Flight time | N/A |
| Altitude | 12500 |
| Route | KCPM PDZ PSP BLH BXK KPHX |
| Aircraft | CC19/L-VGD/A |
Departure
| Time | 2026-05-08 01:52 |
|---|---|
| Airport | Compton Woodley Airport (KCPM) |
Arrival
| Time | N/A |
|---|---|
| Airport | Phoenix Sky Harbor International Airport (KPHX) |
| Time | Latitude | Longitude | Altitude | Speed | Heading |
|---|---|---|---|---|---|
| 2026-05-08 01:09 | 33.88903 | -118.23975 | 93 ft | 0 kts | 178° |
| 2026-05-08 01:45 | 33.88906 | -118.23974 | 94 ft | 4 kts | 2° |
| 2026-05-08 01:45 | 33.88938 | -118.23917 | 92 ft | 15 kts | 82° |
| 2026-05-08 01:45 | 33.88940 | -118.23791 | 91 ft | 3 kts | 86° |
| 2026-05-08 01:45 | 33.88903 | -118.23975 | 92 ft | 0 kts | 178° |
| 2026-05-08 01:50 | 33.88907 | -118.23974 | 94 ft | 5 kts | 4° |
| 2026-05-08 01:51 | 33.88939 | -118.23906 | 91 ft | 16 kts | 91° |
| 2026-05-08 01:51 | 33.88939 | -118.23804 | 91 ft | 1 kts | 89° |
| 2026-05-08 01:51 | 33.88939 | -118.23802 | 91 ft | 0 kts | 89° |
| 2026-05-08 01:51 | 33.88962 | -118.23781 | 91 ft | 11 kts | 317° |
| 2026-05-08 01:52 | 33.88969 | -118.24004 | 98 ft | 55 kts | 271° |
| 2026-05-08 01:52 | 33.88960 | -118.24553 | 304 ft | 74 kts | 269° |
| 2026-05-08 01:52 | 33.88989 | -118.25195 | 623 ft | 73 kts | 270° |
| 2026-05-08 01:52 | 33.88931 | -118.25737 | 948 ft | 71 kts | 227° |
| 2026-05-08 01:53 | 33.88470 | -118.25488 | 1013 ft | 109 kts | 122° |
| 2026-05-08 01:53 | 33.88347 | -118.24515 | 974 ft | 124 kts | 93° |
| 2026-05-08 01:53 | 33.88350 | -118.23507 | 999 ft | 114 kts | 90° |
| 2026-05-08 01:53 | 33.88365 | -118.22557 | 973 ft | 117 kts | 89° |
| 2026-05-08 01:54 | 33.88399 | -118.21574 | 987 ft | 115 kts | 87° |
| 2026-05-08 01:54 | 33.88576 | -118.20638 | 933 ft | 119 kts | 62° |
| 2026-05-08 01:54 | 33.88965 | -118.19780 | 949 ft | 115 kts | 61° |
| 2026-05-08 01:54 | 33.89316 | -118.18894 | 910 ft | 121 kts | 75° |
| 2026-05-08 01:55 | 33.89372 | -118.17903 | 912 ft | 118 kts | 88° |
| 2026-05-08 01:55 | 33.89393 | -118.16928 | 948 ft | 116 kts | 88° |
| 2026-05-08 01:55 | 33.89429 | -118.15953 | 946 ft | 118 kts | 87° |
| 2026-05-08 01:55 | 33.89471 | -118.14980 | 1007 ft | 114 kts | 88° |
| 2026-05-08 01:56 | 33.89540 | -118.14015 | 963 ft | 116 kts | 86° |
| 2026-05-08 01:56 | 33.89563 | -118.13041 | 958 ft | 113 kts | 90° |
| 2026-05-08 01:56 | 33.89605 | -118.12124 | 958 ft | 115 kts | 86° |
| 2026-05-08 01:56 | 33.89624 | -118.11177 | 989 ft | 111 kts | 91° |
| 2026-05-08 01:57 | 33.89653 | -118.10235 | 971 ft | 111 kts | 91° |
| 2026-05-08 01:57 | 33.89666 | -118.09285 | 918 ft | 115 kts | 90° |
| 2026-05-08 01:57 | 33.89689 | -118.08408 | 1147 ft | 99 kts | 90° |
| 2026-05-08 01:57 | 33.89717 | -118.07540 | 1341 ft | 102 kts | 90° |
| 2026-05-08 01:58 | 33.89744 | -118.06637 | 1335 ft | 121 kts | 91° |
| 2026-05-08 01:58 | 33.89768 | -118.05685 | 1572 ft | 109 kts | 89° |
| 2026-05-08 01:58 | 33.89810 | -118.04767 | 1735 ft | 112 kts | 86° |
| 2026-05-08 01:58 | 33.89857 | -118.03808 | 1823 ft | 116 kts | 89° |
| 2026-05-08 01:59 | 33.89880 | -118.02864 | 2000 ft | 112 kts | 89° |
| 2026-05-08 01:59 | 33.89905 | -118.01923 | 2115 ft | 114 kts | 88° |
| 2026-05-08 01:59 | 33.89942 | -118.00960 | 2206 ft | 112 kts | 88° |
| 2026-05-08 01:59 | 33.89977 | -118.00000 | 2267 ft | 116 kts | 87° |
| 2026-05-08 02:00 | 33.90005 | -117.99029 | 2358 ft | 115 kts | 87° |
| 2026-05-08 02:00 | 33.90045 | -117.98054 | 2424 ft | 118 kts | 88° |
| 2026-05-08 02:00 | 33.90071 | -117.97048 | 2483 ft | 120 kts | 88° |
| 2026-05-08 02:00 | 33.90090 | -117.96028 | 2522 ft | 123 kts | 86° |
| 2026-05-08 02:01 | 33.90127 | -117.95013 | 2617 ft | 120 kts | 86° |
| 2026-05-08 02:01 | 33.90166 | -117.94009 | 2681 ft | 119 kts | 85° |
| 2026-05-08 02:01 | 33.90231 | -117.93028 | 2813 ft | 116 kts | 79° |
| 2026-05-08 02:01 | 33.90311 | -117.92055 | 2900 ft | 121 kts | 84° |
| 2026-05-08 02:02 | 33.90366 | -117.91026 | 2907 ft | 125 kts | 84° |
| 2026-05-08 02:02 | 33.90411 | -117.90002 | 3065 ft | 119 kts | 84° |
| 2026-05-08 02:02 | 33.90452 | -117.89041 | 3222 ft | 112 kts | 85° |
| 2026-05-08 02:02 | 33.90489 | -117.88128 | 3380 ft | 107 kts | 84° |
| 2026-05-08 02:03 | 33.90527 | -117.87222 | 3534 ft | 110 kts | 84° |
| 2026-05-08 02:03 | 33.90564 | -117.86304 | 3695 ft | 110 kts | 84° |
| 2026-05-08 02:03 | 33.90601 | -117.85387 | 3858 ft | 109 kts | 84° |
| 2026-05-08 02:03 | 33.90636 | -117.84480 | 4020 ft | 108 kts | 84° |
| 2026-05-08 02:04 | 33.90673 | -117.83574 | 4186 ft | 109 kts | 84° |
| 2026-05-08 02:04 | 33.90708 | -117.82665 | 4350 ft | 109 kts | 84° |
| 2026-05-08 02:04 | 33.90743 | -117.81755 | 4518 ft | 109 kts | 84° |
| 2026-05-08 02:04 | 33.90780 | -117.80847 | 4685 ft | 109 kts | 85° |
| 2026-05-08 02:05 | 33.90816 | -117.79944 | 4854 ft | 107 kts | 85° |
| 2026-05-08 02:05 | 33.90850 | -117.79043 | 5020 ft | 108 kts | 85° |
| 2026-05-08 02:05 | 33.90885 | -117.78153 | 5185 ft | 105 kts | 85° |
| 2026-05-08 02:05 | 33.90911 | -117.77278 | 5341 ft | 103 kts | 82° |
| 2026-05-08 02:06 | 33.90954 | -117.76431 | 5499 ft | 99 kts | 84° |
| 2026-05-08 02:06 | 33.90988 | -117.75608 | 5660 ft | 99 kts | 83° |
| 2026-05-08 02:06 | 33.91019 | -117.74791 | 5822 ft | 96 kts | 82° |
| 2026-05-08 02:06 | 33.91049 | -117.73980 | 5987 ft | 98 kts | 83° |
| 2026-05-08 02:07 | 33.91080 | -117.73167 | 6155 ft | 96 kts | 83° |
| 2026-05-08 02:07 | 33.91111 | -117.72369 | 6327 ft | 96 kts | 82° |
| 2026-05-08 02:07 | 33.91141 | -117.71599 | 6488 ft | 91 kts | 82° |
| 2026-05-08 02:07 | 33.91170 | -117.70837 | 6638 ft | 91 kts | 82° |
| 2026-05-08 02:08 | 33.91200 | -117.70089 | 6789 ft | 87 kts | 82° |
| 2026-05-08 02:08 | 33.91228 | -117.69364 | 6934 ft | 87 kts | 82° |
| 2026-05-08 02:08 | 33.91256 | -117.68641 | 7090 ft | 85 kts | 82° |
| 2026-05-08 02:08 | 33.91283 | -117.67954 | 7236 ft | 79 kts | 81° |
| 2026-05-08 02:09 | 33.91306 | -117.67290 | 7382 ft | 82 kts | 82° |
| 2026-05-08 02:09 | 33.91338 | -117.66556 | 7500 ft | 94 kts | 82° |
| 2026-05-08 02:09 | 33.91368 | -117.65733 | 7641 ft | 102 kts | 82° |
| 2026-05-08 02:09 | 33.91399 | -117.64855 | 7779 ft | 107 kts | 83° |
| 2026-05-08 02:10 | 33.91432 | -117.63942 | 7910 ft | 111 kts | 83° |
| 2026-05-08 02:10 | 33.91466 | -117.63006 | 8029 ft | 113 kts | 83° |
| 2026-05-08 02:10 | 33.91502 | -117.62051 | 8139 ft | 115 kts | 83° |
| 2026-05-08 02:10 | 33.91537 | -117.61087 | 8247 ft | 116 kts | 83° |
| 2026-05-08 02:11 | 33.91573 | -117.60119 | 8355 ft | 116 kts | 82° |
| 2026-05-08 02:11 | 33.91610 | -117.59147 | 8449 ft | 117 kts | 82° |
| 2026-05-08 02:11 | 33.91647 | -117.58145 | 8460 ft | 121 kts | 82° |
| 2026-05-08 02:11 | 33.91684 | -117.57127 | 8459 ft | 122 kts | 82° |
| 2026-05-08 02:12 | 33.91721 | -117.56111 | 8462 ft | 122 kts | 83° |
| 2026-05-08 02:12 | 33.91759 | -117.55094 | 8461 ft | 122 kts | 83° |
| 2026-05-08 02:12 | 33.91797 | -117.54074 | 8464 ft | 122 kts | 82° |
| 2026-05-08 02:12 | 33.91834 | -117.53049 | 8460 ft | 123 kts | 84° |
| 2026-05-08 02:13 | 33.91790 | -117.52020 | 8457 ft | 123 kts | 88° |
| 2026-05-08 02:13 | 33.91755 | -117.50993 | 8458 ft | 123 kts | 86° |
| 2026-05-08 02:13 | 33.91716 | -117.49963 | 8458 ft | 123 kts | 89° |
| 2026-05-08 02:13 | 33.91673 | -117.48933 | 8459 ft | 123 kts | 89° |
| 2026-05-08 02:14 | 33.91633 | -117.47907 | 8460 ft | 123 kts | 88° |
| 2026-05-08 02:14 | 33.91593 | -117.46879 | 8458 ft | 123 kts | 88° |
| 2026-05-08 02:14 | 33.91552 | -117.45847 | 8460 ft | 124 kts | 88° |
| 2026-05-08 02:14 | 33.91510 | -117.44815 | 8460 ft | 123 kts | 88° |
| 2026-05-08 02:15 | 33.91470 | -117.43799 | 8462 ft | 123 kts | 89° |
| 2026-05-08 02:15 | 33.91428 | -117.42756 | 8459 ft | 124 kts | 88° |
| 2026-05-08 02:15 | 33.91387 | -117.41734 | 8464 ft | 124 kts | 88° |
| 2026-05-08 02:15 | 33.91345 | -117.40700 | 8458 ft | 123 kts | 88° |
| 2026-05-08 02:16 | 33.91303 | -117.39669 | 8458 ft | 123 kts | 87° |
| 2026-05-08 02:16 | 33.91261 | -117.38637 | 8458 ft | 124 kts | 88° |
| 2026-05-08 02:16 | 33.91219 | -117.37600 | 8463 ft | 124 kts | 88° |
| 2026-05-08 02:16 | 33.91177 | -117.36562 | 8464 ft | 124 kts | 88° |
| 2026-05-08 02:17 | 33.91134 | -117.35529 | 8460 ft | 123 kts | 88° |
| 2026-05-08 02:17 | 33.91092 | -117.34500 | 8454 ft | 123 kts | 88° |
| 2026-05-08 02:17 | 33.91050 | -117.33472 | 8450 ft | 123 kts | 88° |
| 2026-05-08 02:17 | 33.91008 | -117.32446 | 8451 ft | 123 kts | 88° |
| 2026-05-08 02:18 | 33.90966 | -117.31420 | 8448 ft | 123 kts | 88° |
| 2026-05-08 02:18 | 33.90923 | -117.30390 | 8450 ft | 123 kts | 88° |
| 2026-05-08 02:18 | 33.90879 | -117.29362 | 8451 ft | 123 kts | 88° |
| 2026-05-08 02:18 | 33.90839 | -117.28334 | 8453 ft | 123 kts | 88° |
| 2026-05-08 02:19 | 33.90796 | -117.27307 | 8450 ft | 123 kts | 88° |
| 2026-05-08 02:19 | 33.90754 | -117.26282 | 8451 ft | 123 kts | 88° |
| 2026-05-08 02:19 | 33.90710 | -117.25256 | 8450 ft | 123 kts | 88° |
| 2026-05-08 02:19 | 33.90668 | -117.24227 | 8449 ft | 123 kts | 88° |
| 2026-05-08 02:20 | 33.90625 | -117.23194 | 8451 ft | 124 kts | 88° |
| 2026-05-08 02:20 | 33.90581 | -117.22162 | 8450 ft | 123 kts | 88° |
| 2026-05-08 02:20 | 33.90539 | -117.21128 | 8451 ft | 124 kts | 88° |
| 2026-05-08 02:20 | 33.90503 | -117.20096 | 8451 ft | 123 kts | 87° |
| 2026-05-08 02:21 | 33.90472 | -117.19064 | 8451 ft | 123 kts | 87° |
| 2026-05-08 02:21 | 33.90447 | -117.18035 | 8448 ft | 123 kts | 86° |
| 2026-05-08 02:21 | 33.90426 | -117.17005 | 8450 ft | 123 kts | 86° |
| 2026-05-08 02:21 | 33.90412 | -117.15970 | 8453 ft | 124 kts | 86° |
| 2026-05-08 02:22 | 33.90401 | -117.14924 | 8453 ft | 125 kts | 85° |
| 2026-05-08 02:22 | 33.90395 | -117.13879 | 8447 ft | 125 kts | 85° |
| 2026-05-08 02:22 | 33.90384 | -117.12851 | 8446 ft | 122 kts | 85° |
| 2026-05-08 02:22 | 33.90384 | -117.11828 | 8441 ft | 123 kts | 85° |
| 2026-05-08 02:23 | 33.90392 | -117.10799 | 8442 ft | 123 kts | 84° |
| 2026-05-08 02:23 | 33.90408 | -117.09773 | 8442 ft | 123 kts | 83° |
| 2026-05-08 02:23 | 33.90429 | -117.08745 | 8441 ft | 123 kts | 83° |
| 2026-05-08 02:23 | 33.90456 | -117.07715 | 8442 ft | 123 kts | 83° |
| 2026-05-08 02:24 | 33.90489 | -117.06681 | 8439 ft | 123 kts | 82° |
| 2026-05-08 02:24 | 33.90527 | -117.05652 | 8441 ft | 123 kts | 82° |
| 2026-05-08 02:24 | 33.90317 | -117.04668 | 8451 ft | 128 kts | 130° |
| 2026-05-08 02:24 | 33.89743 | -117.03883 | 8449 ft | 125 kts | 104° |
| 2026-05-08 02:25 | 33.89649 | -117.02887 | 8464 ft | 121 kts | 91° |
| 2026-05-08 02:25 | 33.89558 | -117.01861 | 8468 ft | 122 kts | 89° |
| 2026-05-08 02:25 | 33.89503 | -117.00851 | 8470 ft | 123 kts | 90° |
| 2026-05-08 02:25 | 33.89440 | -116.99827 | 8474 ft | 123 kts | 90° |
| 2026-05-08 02:26 | 33.89372 | -116.98784 | 8471 ft | 123 kts | 88° |
| 2026-05-08 02:26 | 33.89363 | -116.97772 | 8469 ft | 122 kts | 83° |
| 2026-05-08 02:26 | 33.89395 | -116.96752 | 8469 ft | 121 kts | 83° |
| 2026-05-08 02:26 | 33.89405 | -116.95738 | 8465 ft | 121 kts | 85° |
| 2026-05-08 02:27 | 33.89383 | -116.94718 | 8467 ft | 123 kts | 87° |
| 2026-05-08 02:27 | 33.89347 | -116.93691 | 8466 ft | 123 kts | 87° |
| 2026-05-08 02:27 | 33.89306 | -116.92664 | 8465 ft | 123 kts | 87° |
| 2026-05-08 02:27 | 33.89262 | -116.91636 | 8466 ft | 123 kts | 87° |
| 2026-05-08 02:28 | 33.89216 | -116.90601 | 8464 ft | 125 kts | 87° |
| 2026-05-08 02:28 | 33.89170 | -116.89554 | 8461 ft | 126 kts | 88° |
| 2026-05-08 02:28 | 33.89124 | -116.88502 | 8458 ft | 126 kts | 88° |
| 2026-05-08 02:28 | 33.89075 | -116.87454 | 8451 ft | 124 kts | 90° |
| 2026-05-08 02:29 | 33.89028 | -116.86430 | 8443 ft | 122 kts | 86° |
| 2026-05-08 02:29 | 33.88984 | -116.85398 | 8446 ft | 125 kts | 88° |
| 2026-05-08 02:29 | 33.88937 | -116.84351 | 8448 ft | 126 kts | 88° |
| 2026-05-08 02:29 | 33.88889 | -116.83300 | 8447 ft | 126 kts | 86° |
| 2026-05-08 02:30 | 33.88840 | -116.82253 | 8441 ft | 124 kts | 88° |
| 2026-05-08 02:30 | 33.88794 | -116.81211 | 8439 ft | 126 kts | 87° |
| 2026-05-08 02:30 | 33.88748 | -116.80160 | 8434 ft | 126 kts | 86° |
| 2026-05-08 02:30 | 33.88700 | -116.79104 | 8365 ft | 126 kts | 88° |
| 2026-05-08 02:31 | 33.88651 | -116.78043 | 8361 ft | 128 kts | 87° |
| 2026-05-08 02:31 | 33.88603 | -116.76970 | 8351 ft | 128 kts | 87° |
| 2026-05-08 02:31 | 33.88556 | -116.75905 | 8352 ft | 128 kts | 88° |
| 2026-05-08 02:31 | 33.88502 | -116.74834 | 8350 ft | 127 kts | 85° |
| 2026-05-08 02:32 | 33.88454 | -116.73773 | 8351 ft | 127 kts | 85° |
| 2026-05-08 02:32 | 33.88423 | -116.73063 | 8345 ft | 129 kts | 88° |
| 2026-05-08 02:32 | 33.88373 | -116.71991 | 8348 ft | 128 kts | 87° |
| 2026-05-08 02:32 | 33.88322 | -116.70936 | 8321 ft | 121 kts | 83° |
| 2026-05-08 02:33 | 33.88305 | -116.69970 | 8333 ft | 116 kts | 86° |
| 2026-05-08 02:33 | 33.88231 | -116.68964 | 8330 ft | 123 kts | 87° |
| 2026-05-08 02:33 | 33.88178 | -116.67934 | 8335 ft | 123 kts | 86° |
| 2026-05-08 02:33 | 33.88134 | -116.66905 | 8335 ft | 123 kts | 87° |
| 2026-05-08 02:34 | 33.88089 | -116.65867 | 8326 ft | 126 kts | 84° |
| 2026-05-08 02:34 | 33.88041 | -116.64820 | 8333 ft | 125 kts | 87° |
| 2026-05-08 02:34 | 33.87991 | -116.63773 | 8323 ft | 124 kts | 87° |
| 2026-05-08 02:34 | 33.87944 | -116.62751 | 8321 ft | 122 kts | 87° |
| 2026-05-08 02:35 | 33.87896 | -116.61726 | 8323 ft | 123 kts | 84° |
| 2026-05-08 02:35 | 33.87848 | -116.60699 | 8327 ft | 124 kts | 86° |
| 2026-05-08 02:35 | 33.87800 | -116.59659 | 8318 ft | 125 kts | 86° |
| 2026-05-08 02:35 | 33.87751 | -116.58618 | 8318 ft | 124 kts | 85° |
| 2026-05-08 02:36 | 33.87703 | -116.57588 | 8314 ft | 123 kts | 88° |
| 2026-05-08 02:36 | 33.87655 | -116.56574 | 8316 ft | 120 kts | 89° |
| 2026-05-08 02:36 | 33.87606 | -116.55586 | 8312 ft | 119 kts | 87° |
| 2026-05-08 02:36 | 33.87560 | -116.54574 | 8311 ft | 120 kts | 86° |
| 2026-05-08 02:37 | 33.87512 | -116.53572 | 8311 ft | 120 kts | 85° |
| 2026-05-08 02:37 | 33.87464 | -116.52572 | 8311 ft | 119 kts | 86° |
| 2026-05-08 02:37 | 33.87418 | -116.51589 | 8312 ft | 119 kts | 87° |
| 2026-05-08 02:37 | 33.87370 | -116.50593 | 8313 ft | 120 kts | 87° |
| 2026-05-08 02:38 | 33.87323 | -116.49594 | 8315 ft | 119 kts | 88° |
| 2026-05-08 02:38 | 33.87274 | -116.48663 | 8318 ft | 101 kts | 84° |
| 2026-05-08 02:38 | 33.87238 | -116.47860 | 8305 ft | 93 kts | 84° |
| 2026-05-08 02:38 | 33.87203 | -116.47098 | 8306 ft | 90 kts | 83° |
| 2026-05-08 02:39 | 33.87168 | -116.46352 | 8306 ft | 88 kts | 84° |
| 2026-05-08 02:39 | 33.87134 | -116.45619 | 8307 ft | 87 kts | 85° |
| 2026-05-08 02:39 | 33.87099 | -116.44901 | 8308 ft | 86 kts | 84° |
| 2026-05-08 02:39 | 33.87067 | -116.44181 | 8305 ft | 87 kts | 83° |
| 2026-05-08 02:40 | 33.87031 | -116.43452 | 8309 ft | 88 kts | 85° |
| 2026-05-08 02:40 | 33.86972 | -116.42721 | 8308 ft | 89 kts | 94° |
| 2026-05-08 02:40 | 33.86853 | -116.41999 | 8312 ft | 87 kts | 90° |
| 2026-05-08 02:40 | 33.86741 | -116.41277 | 8311 ft | 88 kts | 91° |
| 2026-05-08 02:41 | 33.86628 | -116.40557 | 8308 ft | 87 kts | 92° |
| 2026-05-08 02:41 | 33.86517 | -116.39849 | 8306 ft | 86 kts | 92° |
| 2026-05-08 02:41 | 33.86406 | -116.39146 | 8310 ft | 86 kts | 91° |
| 2026-05-08 02:41 | 33.86295 | -116.38441 | 8304 ft | 85 kts | 91° |
| 2026-05-08 02:42 | 33.86187 | -116.37748 | 8305 ft | 84 kts | 92° |
| 2026-05-08 02:42 | 33.86078 | -116.37069 | 8304 ft | 82 kts | 92° |
| 2026-05-08 02:42 | 33.85975 | -116.36401 | 8305 ft | 82 kts | 91° |
| 2026-05-08 02:42 | 33.85867 | -116.35718 | 8312 ft | 84 kts | 92° |
| 2026-05-08 02:43 | 33.85758 | -116.35021 | 8319 ft | 85 kts | 92° |
| 2026-05-08 02:43 | 33.85647 | -116.34314 | 8322 ft | 87 kts | 91° |
| 2026-05-08 02:43 | 33.85532 | -116.33592 | 8325 ft | 89 kts | 91° |
| 2026-05-08 02:43 | 33.85418 | -116.32865 | 8321 ft | 87 kts | 92° |
| 2026-05-08 02:44 | 33.85304 | -116.32151 | 8316 ft | 86 kts | 91° |
| 2026-05-08 02:44 | 33.85193 | -116.31448 | 8312 ft | 85 kts | 93° |
| 2026-05-08 02:44 | 33.85082 | -116.30751 | 8314 ft | 84 kts | 91° |
| 2026-05-08 02:44 | 33.84974 | -116.30058 | 8311 ft | 84 kts | 93° |
| 2026-05-08 02:45 | 33.84865 | -116.29371 | 8315 ft | 85 kts | 90° |
| 2026-05-08 02:45 | 33.84754 | -116.28668 | 8315 ft | 86 kts | 91° |
| 2026-05-08 02:45 | 33.84643 | -116.27960 | 8317 ft | 86 kts | 92° |
| 2026-05-08 02:45 | 33.84531 | -116.27276 | 8410 ft | 75 kts | 88° |
| 2026-05-08 02:46 | 33.84446 | -116.26709 | 8546 ft | 66 kts | 87° |
| 2026-05-08 02:46 | 33.84361 | -116.26149 | 8624 ft | 69 kts | 88° |
| 2026-05-08 02:46 | 33.84271 | -116.25578 | 8719 ft | 70 kts | 88° |
| 2026-05-08 02:46 | 33.84180 | -116.25008 | 8815 ft | 69 kts | 88° |
| 2026-05-08 02:47 | 33.84091 | -116.24443 | 8910 ft | 68 kts | 88° |
| 2026-05-08 02:47 | 33.84003 | -116.23883 | 9006 ft | 68 kts | 89° |
| 2026-05-08 02:47 | 33.83915 | -116.23330 | 9079 ft | 67 kts | 89° |
| 2026-05-08 02:47 | 33.83827 | -116.22774 | 9179 ft | 68 kts | 88° |
| 2026-05-08 02:48 | 33.83739 | -116.22213 | 9279 ft | 69 kts | 89° |
| 2026-05-08 02:48 | 33.83649 | -116.21648 | 9380 ft | 69 kts | 88° |
| 2026-05-08 02:48 | 33.83558 | -116.21081 | 9488 ft | 69 kts | 88° |
| 2026-05-08 02:48 | 33.83469 | -116.20515 | 9587 ft | 69 kts | 89° |
| 2026-05-08 02:49 | 33.83379 | -116.19936 | 9704 ft | 74 kts | 90° |
| 2026-05-08 02:49 | 33.83272 | -116.19294 | 9823 ft | 79 kts | 91° |
| 2026-05-08 02:49 | 33.83172 | -116.18675 | 9926 ft | 73 kts | 89° |
| 2026-05-08 02:49 | 33.83080 | -116.18093 | 10007 ft | 69 kts | 89° |
| 2026-05-08 02:50 | 33.82992 | -116.17538 | 10084 ft | 65 kts | 89° |
| 2026-05-08 02:50 | 33.82911 | -116.17018 | 10143 ft | 64 kts | 88° |
| 2026-05-08 02:50 | 33.82821 | -116.16462 | 10193 ft | 70 kts | 89° |
| 2026-05-08 02:50 | 33.82728 | -116.15869 | 10250 ft | 78 kts | 90° |
| 2026-05-08 02:51 | 33.82617 | -116.15180 | 10331 ft | 88 kts | 91° |
| 2026-05-08 02:51 | 33.82496 | -116.14428 | 10413 ft | 95 kts | 92° |
| 2026-05-08 02:51 | 33.82367 | -116.13636 | 10499 ft | 100 kts | 93° |
| 2026-05-08 02:51 | 33.82231 | -116.12778 | 10501 ft | 108 kts | 94° |
| 2026-05-08 02:52 | 33.82084 | -116.11880 | 10500 ft | 110 kts | 94° |
| 2026-05-08 02:52 | 33.81934 | -116.10940 | 10415 ft | 118 kts | 94° |
| 2026-05-08 02:52 | 33.81776 | -116.09963 | 10364 ft | 118 kts | 94° |
| 2026-05-08 02:52 | 33.81621 | -116.09012 | 10364 ft | 114 kts | 94° |
| 2026-05-08 02:53 | 33.81475 | -116.08085 | 10361 ft | 112 kts | 94° |
| 2026-05-08 02:53 | 33.81332 | -116.07173 | 10356 ft | 111 kts | 93° |
| 2026-05-08 02:53 | 33.81182 | -116.06254 | 10355 ft | 113 kts | 94° |
| 2026-05-08 02:53 | 33.81030 | -116.05326 | 10356 ft | 112 kts | 94° |
| 2026-05-08 02:54 | 33.80886 | -116.04404 | 10346 ft | 110 kts | 91° |
| 2026-05-08 02:54 | 33.80750 | -116.03513 | 10361 ft | 111 kts | 93° |
| 2026-05-08 02:54 | 33.80597 | -116.02599 | 10364 ft | 114 kts | 94° |
| 2026-05-08 02:54 | 33.80444 | -116.01657 | 10366 ft | 116 kts | 94° |
| 2026-05-08 02:55 | 33.80291 | -116.00701 | 10363 ft | 117 kts | 94° |
| 2026-05-08 02:55 | 33.79983 | -115.98781 | 10370 ft | 117 kts | 94° |
| 2026-05-08 02:55 | 33.79828 | -115.97820 | 10370 ft | 117 kts | 94° |
| 2026-05-08 02:56 | 33.79674 | -115.96861 | 10366 ft | 117 kts | 94° |
| 2026-05-08 02:56 | 33.79519 | -115.95915 | 10357 ft | 114 kts | 93° |
| 2026-05-08 02:56 | 33.79373 | -115.94993 | 10353 ft | 110 kts | 93° |
| 2026-05-08 02:56 | 33.79228 | -115.94086 | 10361 ft | 112 kts | 94° |
| 2026-05-08 02:57 | 33.79077 | -115.93151 | 10363 ft | 115 kts | 94° |
| 2026-05-08 02:57 | 33.78924 | -115.92205 | 10366 ft | 115 kts | 94° |
| 2026-05-08 02:57 | 33.78772 | -115.91265 | 10368 ft | 114 kts | 94° |
| 2026-05-08 02:57 | 33.78621 | -115.90326 | 10365 ft | 115 kts | 94° |
| 2026-05-08 02:58 | 33.78467 | -115.89378 | 10368 ft | 116 kts | 94° |
| 2026-05-08 02:58 | 33.78313 | -115.88425 | 10372 ft | 116 kts | 95° |
| 2026-05-08 02:58 | 33.78160 | -115.87472 | 10372 ft | 117 kts | 95° |
| 2026-05-08 02:58 | 33.78004 | -115.86512 | 10372 ft | 117 kts | 95° |
| 2026-05-08 02:59 | 33.77848 | -115.85551 | 10372 ft | 117 kts | 95° |
| 2026-05-08 02:59 | 33.77693 | -115.84592 | 10374 ft | 117 kts | 94° |
| 2026-05-08 02:59 | 33.77537 | -115.83631 | 10373 ft | 117 kts | 94° |
| 2026-05-08 02:59 | 33.77381 | -115.82669 | 10376 ft | 117 kts | 95° |
| 2026-05-08 03:00 | 33.77226 | -115.81709 | 10370 ft | 117 kts | 94° |
| 2026-05-08 03:00 | 33.77069 | -115.80748 | 10369 ft | 117 kts | 95° |
| 2026-05-08 03:00 | 33.76913 | -115.79785 | 10369 ft | 117 kts | 95° |
| 2026-05-08 03:00 | 33.76757 | -115.78823 | 10369 ft | 117 kts | 95° |
| 2026-05-08 03:01 | 33.76600 | -115.77857 | 10374 ft | 118 kts | 95° |
| 2026-05-08 03:01 | 33.76442 | -115.76890 | 10380 ft | 118 kts | 95° |
| 2026-05-08 03:01 | 33.76284 | -115.75919 | 10381 ft | 118 kts | 95° |
| 2026-05-08 03:01 | 33.76126 | -115.74944 | 10378 ft | 119 kts | 95° |
| 2026-05-08 03:02 | 33.75966 | -115.73961 | 10380 ft | 120 kts | 95° |
| 2026-05-08 03:02 | 33.75806 | -115.72978 | 10381 ft | 119 kts | 95° |
| 2026-05-08 03:02 | 33.75646 | -115.72001 | 10378 ft | 119 kts | 95° |
| 2026-05-08 03:02 | 33.75487 | -115.71028 | 10375 ft | 119 kts | 95° |
| 2026-05-08 03:03 | 33.75329 | -115.70057 | 10374 ft | 118 kts | 95° |
| 2026-05-08 03:03 | 33.75170 | -115.69088 | 10373 ft | 118 kts | 95° |
| 2026-05-08 03:03 | 33.75012 | -115.68118 | 10372 ft | 119 kts | 95° |
| 2026-05-08 03:03 | 33.74856 | -115.67161 | 10372 ft | 118 kts | 95° |
| 2026-05-08 03:04 | 33.74698 | -115.66196 | 10370 ft | 117 kts | 95° |
| 2026-05-08 03:04 | 33.74539 | -115.65224 | 10368 ft | 117 kts | 95° |
| 2026-05-08 03:04 | 33.74382 | -115.64269 | 10370 ft | 119 kts | 95° |
| 2026-05-08 03:04 | 33.74222 | -115.63292 | 10368 ft | 119 kts | 95° |
| 2026-05-08 03:05 | 33.74062 | -115.62319 | 10368 ft | 118 kts | 95° |
| 2026-05-08 03:05 | 33.73905 | -115.61356 | 10368 ft | 117 kts | 95° |
| 2026-05-08 03:05 | 33.73747 | -115.60393 | 10366 ft | 118 kts | 95° |
| 2026-05-08 03:05 | 33.73589 | -115.59430 | 10366 ft | 118 kts | 95° |
| 2026-05-08 03:06 | 33.73429 | -115.58457 | 10368 ft | 120 kts | 95° |
| 2026-05-08 03:06 | 33.73267 | -115.57471 | 10374 ft | 121 kts | 95° |
| 2026-05-08 03:06 | 33.73104 | -115.56479 | 10376 ft | 121 kts | 96° |
| 2026-05-08 03:06 | 33.72941 | -115.55484 | 10378 ft | 122 kts | 96° |
| 2026-05-08 03:07 | 33.72777 | -115.54489 | 10374 ft | 121 kts | 95° |
| 2026-05-08 03:07 | 33.72615 | -115.53514 | 10362 ft | 116 kts | 97° |
| 2026-05-08 03:07 | 33.72460 | -115.52570 | 10362 ft | 117 kts | 95° |
| 2026-05-08 03:07 | 33.72302 | -115.51605 | 10358 ft | 119 kts | 95° |
| 2026-05-08 03:08 | 33.72141 | -115.50629 | 10362 ft | 119 kts | 95° |
| 2026-05-08 03:08 | 33.71979 | -115.49649 | 10363 ft | 120 kts | 95° |
| 2026-05-08 03:08 | 33.71816 | -115.48664 | 10366 ft | 120 kts | 95° |
| 2026-05-08 03:08 | 33.71654 | -115.47679 | 10364 ft | 120 kts | 95° |
| 2026-05-08 03:09 | 33.71491 | -115.46693 | 10365 ft | 120 kts | 95° |
| 2026-05-08 03:09 | 33.71327 | -115.45707 | 10364 ft | 120 kts | 95° |
| 2026-05-08 03:09 | 33.71164 | -115.44721 | 10365 ft | 121 kts | 95° |
| 2026-05-08 03:09 | 33.71001 | -115.43731 | 10364 ft | 121 kts | 95° |
| 2026-05-08 03:10 | 33.70836 | -115.42739 | 10365 ft | 121 kts | 95° |
| 2026-05-08 03:10 | 33.70672 | -115.41746 | 10366 ft | 121 kts | 95° |
| 2026-05-08 03:10 | 33.70507 | -115.40752 | 10363 ft | 121 kts | 95° |
| 2026-05-08 03:10 | 33.70342 | -115.39758 | 10365 ft | 121 kts | 95° |
| 2026-05-08 03:11 | 33.70176 | -115.38762 | 10364 ft | 122 kts | 95° |
| 2026-05-08 03:11 | 33.70011 | -115.37765 | 10364 ft | 122 kts | 95° |
| 2026-05-08 03:11 | 33.69845 | -115.36768 | 10365 ft | 122 kts | 95° |
| 2026-05-08 03:11 | 33.69679 | -115.35769 | 10365 ft | 122 kts | 95° |
| 2026-05-08 03:12 | 33.69514 | -115.34770 | 10369 ft | 122 kts | 95° |
| 2026-05-08 03:12 | 33.69346 | -115.33766 | 10369 ft | 122 kts | 95° |
| 2026-05-08 03:12 | 33.69179 | -115.32763 | 10365 ft | 122 kts | 95° |
| 2026-05-08 03:12 | 33.69013 | -115.31760 | 10366 ft | 123 kts | 95° |
| 2026-05-08 03:13 | 33.68846 | -115.30759 | 10365 ft | 122 kts | 95° |
| 2026-05-08 03:13 | 33.68679 | -115.29766 | 10364 ft | 121 kts | 95° |
| 2026-05-08 03:13 | 33.68514 | -115.28774 | 10361 ft | 121 kts | 95° |
| 2026-05-08 03:13 | 33.68349 | -115.27784 | 10359 ft | 121 kts | 95° |
| 2026-05-08 03:14 | 33.68185 | -115.26797 | 10358 ft | 121 kts | 95° |
| 2026-05-08 03:14 | 33.68021 | -115.25820 | 10361 ft | 121 kts | 95° |
| 2026-05-08 03:14 | 33.67855 | -115.24828 | 10360 ft | 121 kts | 95° |
| 2026-05-08 03:14 | 33.67690 | -115.23837 | 10359 ft | 121 kts | 95° |
| 2026-05-08 03:15 | 33.67524 | -115.22847 | 10357 ft | 121 kts | 95° |
| 2026-05-08 03:15 | 33.67358 | -115.21857 | 10356 ft | 121 kts | 95° |
| 2026-05-08 03:15 | 33.67193 | -115.20869 | 10355 ft | 121 kts | 95° |
| 2026-05-08 03:15 | 33.67027 | -115.19881 | 10357 ft | 121 kts | 95° |
| 2026-05-08 03:16 | 33.66861 | -115.18893 | 10356 ft | 121 kts | 95° |
| 2026-05-08 03:16 | 33.66696 | -115.17905 | 10355 ft | 121 kts | 95° |
| 2026-05-08 03:16 | 33.66530 | -115.16916 | 10354 ft | 121 kts | 95° |
| 2026-05-08 03:16 | 33.66364 | -115.15930 | 10355 ft | 120 kts | 95° |
| 2026-05-08 03:17 | 33.66198 | -115.14945 | 10356 ft | 120 kts | 95° |
| 2026-05-08 03:17 | 33.66033 | -115.13959 | 10357 ft | 120 kts | 95° |
| 2026-05-08 03:17 | 33.65867 | -115.12976 | 10357 ft | 120 kts | 95° |
| 2026-05-08 03:17 | 33.65702 | -115.11991 | 10357 ft | 121 kts | 95° |
| 2026-05-08 03:18 | 33.65536 | -115.11007 | 10357 ft | 120 kts | 95° |
| 2026-05-08 03:18 | 33.65371 | -115.10027 | 10359 ft | 120 kts | 95° |
| 2026-05-08 03:18 | 33.65206 | -115.09048 | 10357 ft | 120 kts | 95° |
| 2026-05-08 03:18 | 33.65041 | -115.08070 | 10359 ft | 120 kts | 95° |
| 2026-05-08 03:19 | 33.64876 | -115.07091 | 10360 ft | 120 kts | 95° |
| 2026-05-08 03:19 | 33.64711 | -115.06112 | 10357 ft | 120 kts | 95° |
| 2026-05-08 03:19 | 33.64545 | -115.05131 | 10357 ft | 120 kts | 95° |
| 2026-05-08 03:19 | 33.64379 | -115.04149 | 10356 ft | 120 kts | 95° |
| 2026-05-08 03:20 | 33.64213 | -115.03167 | 10356 ft | 120 kts | 95° |
| 2026-05-08 03:20 | 33.64047 | -115.02184 | 10360 ft | 120 kts | 95° |
| 2026-05-08 03:20 | 33.63881 | -115.01202 | 10358 ft | 120 kts | 94° |
| 2026-05-08 03:20 | 33.63714 | -115.00220 | 10360 ft | 120 kts | 94° |
| 2026-05-08 03:21 | 33.63605 | -114.99570 | 10357 ft | 120 kts | 94° |
| 2026-05-08 03:21 | 33.63438 | -114.98590 | 10362 ft | 120 kts | 95° |
| 2026-05-08 03:21 | 33.63216 | -114.97283 | 10361 ft | 119 kts | 94° |
| 2026-05-08 03:21 | 33.63107 | -114.96635 | 10360 ft | 119 kts | 94° |
| 2026-05-08 03:22 | 33.62941 | -114.95659 | 10361 ft | 119 kts | 94° |
| 2026-05-08 03:22 | 33.62776 | -114.94684 | 10359 ft | 119 kts | 94° |
| 2026-05-08 03:22 | 33.62611 | -114.93713 | 10361 ft | 119 kts | 94° |
| 2026-05-08 03:22 | 33.62445 | -114.92742 | 10360 ft | 119 kts | 94° |
| 2026-05-08 03:23 | 33.62281 | -114.91773 | 10362 ft | 119 kts | 94° |
| 2026-05-08 03:23 | 33.62116 | -114.90805 | 10362 ft | 118 kts | 94° |
| 2026-05-08 03:23 | 33.61952 | -114.89840 | 10363 ft | 118 kts | 94° |
| 2026-05-08 03:23 | 33.61788 | -114.88875 | 10366 ft | 118 kts | 94° |
| 2026-05-08 03:24 | 33.61623 | -114.87909 | 10364 ft | 118 kts | 94° |
| 2026-05-08 03:24 | 33.61459 | -114.86945 | 10365 ft | 118 kts | 94° |
| 2026-05-08 03:24 | 33.61295 | -114.85982 | 10367 ft | 118 kts | 94° |
| 2026-05-08 03:24 | 33.61131 | -114.85023 | 10364 ft | 117 kts | 94° |
| 2026-05-08 03:25 | 33.60967 | -114.84066 | 10366 ft | 117 kts | 94° |
| 2026-05-08 03:25 | 33.60804 | -114.83111 | 10367 ft | 117 kts | 94° |
| 2026-05-08 03:25 | 33.60641 | -114.82158 | 10367 ft | 117 kts | 94° |
| 2026-05-08 03:25 | 33.60478 | -114.81205 | 10366 ft | 117 kts | 94° |
| 2026-05-08 03:26 | 33.60316 | -114.80250 | 10367 ft | 117 kts | 94° |
| 2026-05-08 03:26 | 33.60152 | -114.79298 | 10365 ft | 117 kts | 94° |
| 2026-05-08 03:26 | 33.59989 | -114.78346 | 10370 ft | 116 kts | 95° |
| 2026-05-08 03:26 | 33.59827 | -114.77396 | 10369 ft | 116 kts | 95° |
| 2026-05-08 03:27 | 33.59664 | -114.76449 | 10371 ft | 116 kts | 94° |
| 2026-05-08 03:27 | 33.59566 | -114.75505 | 10365 ft | 113 kts | 86° |
| 2026-05-08 03:27 | 33.59507 | -114.74564 | 10368 ft | 113 kts | 87° |
| 2026-05-08 03:27 | 33.59445 | -114.73622 | 10366 ft | 113 kts | 88° |
| 2026-05-08 03:28 | 33.59383 | -114.72681 | 10368 ft | 113 kts | 88° |
| 2026-05-08 03:28 | 33.59320 | -114.71739 | 10368 ft | 113 kts | 88° |
| 2026-05-08 03:28 | 33.59258 | -114.70798 | 10369 ft | 113 kts | 88° |
| 2026-05-08 03:28 | 33.59196 | -114.69857 | 10368 ft | 113 kts | 88° |
| 2026-05-08 03:29 | 33.59134 | -114.68919 | 10368 ft | 113 kts | 88° |
| 2026-05-08 03:29 | 33.59071 | -114.67981 | 10369 ft | 112 kts | 88° |
| 2026-05-08 03:29 | 33.59009 | -114.67047 | 10367 ft | 112 kts | 88° |
| 2026-05-08 03:29 | 33.58947 | -114.66115 | 10368 ft | 112 kts | 88° |
| 2026-05-08 03:30 | 33.58823 | -114.64246 | 10370 ft | 113 kts | 88° |
| 2026-05-08 03:30 | 33.58698 | -114.62373 | 10368 ft | 113 kts | 88° |
| 2026-05-08 03:31 | 33.58572 | -114.60505 | 10368 ft | 112 kts | 88° |
| 2026-05-08 03:31 | 33.58447 | -114.58636 | 10368 ft | 112 kts | 88° |
| 2026-05-08 03:32 | 33.58384 | -114.57704 | 10368 ft | 112 kts | 88° |
| 2026-05-08 03:32 | 33.58321 | -114.56774 | 10366 ft | 112 kts | 88° |
| 2026-05-08 03:32 | 33.58259 | -114.55843 | 10366 ft | 112 kts | 88° |
| 2026-05-08 03:32 | 33.58197 | -114.54915 | 10367 ft | 112 kts | 88° |
| 2026-05-08 03:33 | 33.58134 | -114.53987 | 10367 ft | 112 kts | 88° |
| 2026-05-08 03:33 | 33.58071 | -114.53061 | 10365 ft | 111 kts | 88° |
| 2026-05-08 03:33 | 33.58009 | -114.52133 | 10364 ft | 112 kts | 88° |
| 2026-05-08 03:33 | 33.57947 | -114.51218 | 10365 ft | 112 kts | 88° |
| 2026-05-08 03:34 | 33.57883 | -114.50290 | 10366 ft | 112 kts | 88° |
| 2026-05-08 03:34 | 33.57821 | -114.49362 | 10366 ft | 112 kts | 88° |
| 2026-05-08 03:34 | 33.57758 | -114.48433 | 10365 ft | 112 kts | 88° |
| 2026-05-08 03:34 | 33.57694 | -114.47504 | 10364 ft | 112 kts | 88° |
| 2026-05-08 03:35 | 33.57631 | -114.46578 | 10361 ft | 111 kts | 89° |
| 2026-05-08 03:35 | 33.57568 | -114.45653 | 10363 ft | 112 kts | 89° |
| 2026-05-08 03:35 | 33.57505 | -114.44724 | 10362 ft | 112 kts | 89° |
| 2026-05-08 03:35 | 33.57441 | -114.43798 | 10363 ft | 111 kts | 88° |
| 2026-05-08 03:36 | 33.57378 | -114.42873 | 10362 ft | 111 kts | 89° |
| 2026-05-08 03:36 | 33.57315 | -114.41949 | 10363 ft | 111 kts | 89° |
| 2026-05-08 03:36 | 33.57251 | -114.41025 | 10364 ft | 111 kts | 88° |
| 2026-05-08 03:36 | 33.57188 | -114.40100 | 10362 ft | 111 kts | 89° |
| 2026-05-08 03:37 | 33.57123 | -114.39160 | 10366 ft | 112 kts | 89° |
| 2026-05-08 03:37 | 33.57059 | -114.38226 | 10366 ft | 113 kts | 89° |
| 2026-05-08 03:37 | 33.56995 | -114.37285 | 10371 ft | 114 kts | 89° |
| 2026-05-08 03:37 | 33.56930 | -114.36341 | 10366 ft | 114 kts | 89° |
| 2026-05-08 03:38 | 33.56863 | -114.35400 | 10360 ft | 112 kts | 87° |
| 2026-05-08 03:38 | 33.56800 | -114.34474 | 10365 ft | 113 kts | 88° |
| 2026-05-08 03:38 | 33.56736 | -114.33532 | 10367 ft | 114 kts | 89° |
| 2026-05-08 03:38 | 33.56670 | -114.32585 | 10370 ft | 114 kts | 89° |
| 2026-05-08 03:39 | 33.56606 | -114.31641 | 10369 ft | 113 kts | 89° |
| 2026-05-08 03:39 | 33.56539 | -114.30705 | 10365 ft | 112 kts | 89° |
| 2026-05-08 03:39 | 33.56474 | -114.29775 | 10367 ft | 112 kts | 89° |
| 2026-05-08 03:39 | 33.56410 | -114.28849 | 10367 ft | 112 kts | 89° |
| 2026-05-08 03:40 | 33.56346 | -114.27922 | 10364 ft | 112 kts | 89° |
| 2026-05-08 03:40 | 33.56281 | -114.26994 | 10365 ft | 112 kts | 89° |
| 2026-05-08 03:40 | 33.56216 | -114.26067 | 10365 ft | 112 kts | 89° |
| 2026-05-08 03:40 | 33.56152 | -114.25138 | 10362 ft | 112 kts | 89° |
| 2026-05-08 03:41 | 33.56088 | -114.24221 | 10369 ft | 112 kts | 89° |
| 2026-05-08 03:41 | 33.56022 | -114.23295 | 10367 ft | 112 kts | 89° |
| 2026-05-08 03:41 | 33.55957 | -114.22368 | 10368 ft | 112 kts | 88° |
| 2026-05-08 03:41 | 33.55892 | -114.21428 | 10367 ft | 112 kts | 89° |
| 2026-05-08 03:42 | 33.55827 | -114.20498 | 10367 ft | 112 kts | 88° |
| 2026-05-08 03:42 | 33.55761 | -114.19578 | 10368 ft | 112 kts | 88° |
| 2026-05-08 03:42 | 33.55696 | -114.18646 | 10370 ft | 112 kts | 88° |
| 2026-05-08 03:42 | 33.55631 | -114.17715 | 10366 ft | 112 kts | 88° |
| 2026-05-08 03:43 | 33.55565 | -114.16785 | 10368 ft | 112 kts | 88° |
| 2026-05-08 03:43 | 33.55499 | -114.15854 | 10368 ft | 112 kts | 88° |
| 2026-05-08 03:43 | 33.55433 | -114.14920 | 10368 ft | 113 kts | 88° |
| 2026-05-08 03:43 | 33.55367 | -114.13985 | 10371 ft | 113 kts | 88° |
| 2026-05-08 03:44 | 33.55301 | -114.13047 | 10374 ft | 113 kts | 88° |
| 2026-05-08 03:44 | 33.55234 | -114.12104 | 10376 ft | 113 kts | 88° |
| 2026-05-08 03:44 | 33.55167 | -114.11166 | 10375 ft | 113 kts | 88° |
| 2026-05-08 03:44 | 33.55100 | -114.10228 | 10376 ft | 113 kts | 88° |
| 2026-05-08 03:45 | 33.55033 | -114.09293 | 10378 ft | 112 kts | 88° |
| 2026-05-08 03:45 | 33.54967 | -114.08357 | 10377 ft | 113 kts | 88° |
| 2026-05-08 03:45 | 33.54901 | -114.07423 | 10375 ft | 112 kts | 88° |
| 2026-05-08 03:45 | 33.54834 | -114.06494 | 10377 ft | 112 kts | 88° |
| 2026-05-08 03:46 | 33.54768 | -114.05567 | 10373 ft | 111 kts | 88° |
| 2026-05-08 03:46 | 33.54702 | -114.04644 | 10373 ft | 112 kts | 88° |
| 2026-05-08 03:46 | 33.54635 | -114.03710 | 10376 ft | 113 kts | 88° |
| 2026-05-08 03:46 | 33.54570 | -114.02772 | 10378 ft | 113 kts | 88° |
| 2026-05-08 03:47 | 33.54500 | -114.01832 | 10382 ft | 113 kts | 88° |
| 2026-05-08 03:47 | 33.54432 | -114.00890 | 10385 ft | 113 kts | 88° |
| 2026-05-08 03:47 | 33.54365 | -113.99950 | 10392 ft | 113 kts | 88° |
| 2026-05-08 03:47 | 33.54298 | -113.99011 | 10398 ft | 113 kts | 87° |
| 2026-05-08 03:48 | 33.54229 | -113.98074 | 10402 ft | 113 kts | 87° |
| 2026-05-08 03:48 | 33.54163 | -113.97137 | 10404 ft | 113 kts | 87° |
| 2026-05-08 03:48 | 33.54095 | -113.96202 | 10408 ft | 113 kts | 87° |
| 2026-05-08 03:48 | 33.54028 | -113.95265 | 10417 ft | 113 kts | 87° |
| 2026-05-08 03:49 | 33.53959 | -113.94319 | 10426 ft | 115 kts | 87° |
| 2026-05-08 03:49 | 33.53889 | -113.93365 | 10427 ft | 115 kts | 87° |
| 2026-05-08 03:49 | 33.53821 | -113.92418 | 10433 ft | 114 kts | 88° |
| 2026-05-08 03:49 | 33.53752 | -113.91467 | 10441 ft | 115 kts | 87° |
| 2026-05-08 03:50 | 33.53682 | -113.90509 | 10440 ft | 115 kts | 87° |
| 2026-05-08 03:50 | 33.53614 | -113.89570 | 10446 ft | 114 kts | 87° |
| 2026-05-08 03:50 | 33.53545 | -113.88623 | 10451 ft | 114 kts | 87° |
| 2026-05-08 03:50 | 33.53476 | -113.87677 | 10454 ft | 114 kts | 88° |
| 2026-05-08 03:51 | 33.53407 | -113.86735 | 10457 ft | 113 kts | 88° |
| 2026-05-08 03:51 | 33.53338 | -113.85795 | 10461 ft | 113 kts | 87° |
| 2026-05-08 03:51 | 33.53270 | -113.84857 | 10468 ft | 113 kts | 88° |
| 2026-05-08 03:51 | 33.53202 | -113.83921 | 10470 ft | 113 kts | 87° |
| 2026-05-08 03:52 | 33.53134 | -113.82994 | 10475 ft | 111 kts | 87° |
| 2026-05-08 03:52 | 33.53066 | -113.82069 | 10470 ft | 109 kts | 87° |
| 2026-05-08 03:52 | 33.53000 | -113.81173 | 10486 ft | 109 kts | 87° |
| 2026-05-08 03:52 | 33.52933 | -113.80245 | 10493 ft | 113 kts | 87° |
| 2026-05-08 03:53 | 33.52863 | -113.79299 | 10481 ft | 116 kts | 87° |
| 2026-05-08 03:53 | 33.52791 | -113.78323 | 10423 ft | 119 kts | 88° |
| 2026-05-08 03:53 | 33.52717 | -113.77334 | 10365 ft | 120 kts | 88° |
| 2026-05-08 03:53 | 33.52644 | -113.76336 | 10305 ft | 121 kts | 88° |
| 2026-05-08 03:54 | 33.52569 | -113.75332 | 10245 ft | 121 kts | 88° |
| 2026-05-08 03:54 | 33.52494 | -113.74324 | 10181 ft | 122 kts | 88° |
| 2026-05-08 03:54 | 33.52419 | -113.73311 | 10121 ft | 122 kts | 88° |
| 2026-05-08 03:54 | 33.52343 | -113.72285 | 10055 ft | 122 kts | 88° |
| 2026-05-08 03:55 | 33.52268 | -113.71284 | 9991 ft | 122 kts | 88° |
| 2026-05-08 03:55 | 33.52192 | -113.70254 | 9925 ft | 123 kts | 88° |
| 2026-05-08 03:55 | 33.52118 | -113.69247 | 9856 ft | 123 kts | 88° |
| 2026-05-08 03:55 | 33.52041 | -113.68224 | 9786 ft | 123 kts | 88° |
| 2026-05-08 03:56 | 33.51964 | -113.67200 | 9716 ft | 124 kts | 88° |
| 2026-05-08 03:56 | 33.51888 | -113.66175 | 9644 ft | 124 kts | 88° |
| 2026-05-08 03:56 | 33.51811 | -113.65150 | 9572 ft | 124 kts | 88° |
| 2026-05-08 03:56 | 33.51734 | -113.64123 | 9493 ft | 124 kts | 88° |
| 2026-05-08 03:57 | 33.51658 | -113.63095 | 9414 ft | 124 kts | 88° |
| 2026-05-08 03:57 | 33.51581 | -113.62068 | 9334 ft | 124 kts | 88° |
| 2026-05-08 03:57 | 33.51503 | -113.61038 | 9264 ft | 124 kts | 88° |
| 2026-05-08 03:57 | 33.51426 | -113.60011 | 9192 ft | 124 kts | 88° |
| 2026-05-08 03:58 | 33.51348 | -113.58982 | 9117 ft | 124 kts | 89° |
| 2026-05-08 03:58 | 33.51271 | -113.57951 | 9042 ft | 124 kts | 89° |
| 2026-05-08 03:58 | 33.51193 | -113.56918 | 8968 ft | 124 kts | 89° |
| 2026-05-08 03:58 | 33.51115 | -113.55879 | 8865 ft | 127 kts | 89° |
| 2026-05-08 03:59 | 33.51035 | -113.54819 | 8747 ft | 128 kts | 89° |
| 2026-05-08 03:59 | 33.50954 | -113.53750 | 8626 ft | 129 kts | 89° |
| 2026-05-08 03:59 | 33.50872 | -113.52683 | 8506 ft | 129 kts | 90° |
| 2026-05-08 03:59 | 33.50792 | -113.51618 | 8380 ft | 128 kts | 90° |
| 2026-05-08 04:00 | 33.50710 | -113.50551 | 8252 ft | 129 kts | 90° |
| 2026-05-08 04:00 | 33.50629 | -113.49482 | 8119 ft | 129 kts | 90° |
| 2026-05-08 04:00 | 33.50547 | -113.48408 | 7998 ft | 130 kts | 90° |
| 2026-05-08 04:00 | 33.50466 | -113.47331 | 7873 ft | 130 kts | 90° |
| 2026-05-08 04:01 | 33.50383 | -113.46255 | 7746 ft | 130 kts | 91° |
| 2026-05-08 04:01 | 33.50301 | -113.45176 | 7629 ft | 130 kts | 91° |
| 2026-05-08 04:01 | 33.50219 | -113.44100 | 7503 ft | 130 kts | 91° |
| 2026-05-08 04:01 | 33.50136 | -113.43016 | 7381 ft | 131 kts | 91° |
| 2026-05-08 04:02 | 33.50052 | -113.41933 | 7257 ft | 130 kts | 92° |
| 2026-05-08 04:02 | 33.49971 | -113.40849 | 7133 ft | 131 kts | 92° |
| 2026-05-08 04:02 | 33.49886 | -113.39759 | 7011 ft | 131 kts | 92° |
| 2026-05-08 04:02 | 33.49802 | -113.38672 | 6887 ft | 131 kts | 92° |
| 2026-05-08 04:03 | 33.49719 | -113.37598 | 6766 ft | 131 kts | 92° |
| 2026-05-08 04:03 | 33.49551 | -113.35418 | 6521 ft | 131 kts | 93° |
| 2026-05-08 04:03 | 33.49467 | -113.34330 | 6398 ft | 132 kts | 93° |
| 2026-05-08 04:04 | 33.49383 | -113.33236 | 6271 ft | 132 kts | 94° |
| 2026-05-08 04:04 | 33.49298 | -113.32145 | 6146 ft | 132 kts | 94° |
| 2026-05-08 04:04 | 33.49213 | -113.31052 | 6018 ft | 132 kts | 94° |
| 2026-05-08 04:04 | 33.49129 | -113.29963 | 5891 ft | 132 kts | 94° |
| 2026-05-08 04:05 | 33.49044 | -113.28869 | 5766 ft | 132 kts | 94° |
| 2026-05-08 04:05 | 33.48959 | -113.27774 | 5638 ft | 132 kts | 94° |
| 2026-05-08 04:05 | 33.48873 | -113.26681 | 5503 ft | 132 kts | 94° |
| 2026-05-08 04:05 | 33.48788 | -113.25583 | 5384 ft | 133 kts | 94° |
| 2026-05-08 04:06 | 33.48702 | -113.24483 | 5254 ft | 133 kts | 94° |
| 2026-05-08 04:06 | 33.48616 | -113.23383 | 5123 ft | 133 kts | 94° |
| 2026-05-08 04:06 | 33.48530 | -113.22277 | 5006 ft | 133 kts | 94° |
| 2026-05-08 04:06 | 33.48443 | -113.21173 | 4879 ft | 133 kts | 94° |
| 2026-05-08 04:07 | 33.48386 | -113.20441 | 4799 ft | 133 kts | 95° |
| 2026-05-08 04:07 | 33.48269 | -113.18961 | 4636 ft | 133 kts | 95° |
| 2026-05-08 04:07 | 33.48212 | -113.18228 | 4543 ft | 133 kts | 95° |
| 2026-05-08 04:07 | 33.48125 | -113.17122 | 4421 ft | 133 kts | 95° |
| 2026-05-08 04:08 | 33.48037 | -113.16015 | 4296 ft | 134 kts | 95° |
| 2026-05-08 04:08 | 33.47950 | -113.14905 | 4175 ft | 134 kts | 95° |
| 2026-05-08 04:08 | 33.47862 | -113.13791 | 4053 ft | 134 kts | 95° |
| 2026-05-08 04:08 | 33.47774 | -113.12683 | 3933 ft | 133 kts | 95° |
| 2026-05-08 04:09 | 33.47687 | -113.11573 | 3815 ft | 135 kts | 95° |
| 2026-05-08 04:09 | 33.47598 | -113.10455 | 3695 ft | 135 kts | 95° |
| 2026-05-08 04:09 | 33.47510 | -113.09342 | 3580 ft | 134 kts | 95° |
| 2026-05-08 04:09 | 33.47422 | -113.08231 | 3465 ft | 134 kts | 95° |
| 2026-05-08 04:10 | 33.47333 | -113.07118 | 3349 ft | 134 kts | 95° |
| 2026-05-08 04:10 | 33.47245 | -113.06007 | 3229 ft | 134 kts | 95° |
| 2026-05-08 04:10 | 33.47156 | -113.04893 | 3111 ft | 134 kts | 95° |
| 2026-05-08 04:10 | 33.47067 | -113.03777 | 2999 ft | 135 kts | 95° |
| 2026-05-08 04:11 | 33.46977 | -113.02660 | 2880 ft | 135 kts | 95° |
| 2026-05-08 04:11 | 33.46889 | -113.01545 | 2765 ft | 134 kts | 95° |
| 2026-05-08 04:11 | 33.46801 | -113.00447 | 2689 ft | 130 kts | 95° |
| 2026-05-08 04:11 | 33.46716 | -112.99384 | 2683 ft | 127 kts | 95° |
| 2026-05-08 04:12 | 33.46631 | -112.98335 | 2681 ft | 127 kts | 95° |
| 2026-05-08 04:12 | 33.46549 | -112.97293 | 2683 ft | 124 kts | 95° |
| 2026-05-08 04:12 | 33.46466 | -112.96261 | 2683 ft | 124 kts | 95° |
| 2026-05-08 04:12 | 33.46382 | -112.95233 | 2687 ft | 124 kts | 95° |
| 2026-05-08 04:13 | 33.46301 | -112.94214 | 2688 ft | 125 kts | 95° |
| 2026-05-08 04:13 | 33.46218 | -112.93183 | 2692 ft | 124 kts | 95° |
| 2026-05-08 04:13 | 33.46133 | -112.92140 | 2693 ft | 124 kts | 95° |
| 2026-05-08 04:13 | 33.46051 | -112.91120 | 2698 ft | 125 kts | 95° |
| 2026-05-08 04:14 | 33.45967 | -112.90077 | 2701 ft | 126 kts | 95° |
| 2026-05-08 04:14 | 33.45882 | -112.89031 | 2698 ft | 127 kts | 96° |
| 2026-05-08 04:14 | 33.45797 | -112.87984 | 2705 ft | 126 kts | 96° |
| 2026-05-08 04:14 | 33.45713 | -112.86943 | 2707 ft | 125 kts | 96° |
| 2026-05-08 04:15 | 33.45627 | -112.85900 | 2714 ft | 126 kts | 96° |
| 2026-05-08 04:15 | 33.45543 | -112.84851 | 2716 ft | 127 kts | 96° |
| 2026-05-08 04:15 | 33.45457 | -112.83798 | 2720 ft | 127 kts | 96° |
| 2026-05-08 04:15 | 33.45371 | -112.82750 | 2722 ft | 126 kts | 96° |
| 2026-05-08 04:16 | 33.45474 | -112.81733 | 2715 ft | 124 kts | 53° |
| 2026-05-08 04:16 | 33.46180 | -112.81313 | 2723 ft | 113 kts | 359° |
| 2026-05-08 04:16 | 33.46968 | -112.81220 | 2731 ft | 115 kts | 1° |
| 2026-05-08 04:16 | 33.47764 | -112.81112 | 2733 ft | 115 kts | 1° |
| 2026-05-08 04:17 | 33.48562 | -112.80996 | 2735 ft | 117 kts | 7° |
| 2026-05-08 04:17 | 33.49163 | -112.80347 | 2717 ft | 126 kts | 71° |
| 2026-05-08 04:17 | 33.49254 | -112.79305 | 2728 ft | 126 kts | 84° |
| 2026-05-08 04:17 | 33.49345 | -112.78266 | 2735 ft | 125 kts | 84° |
| 2026-05-08 04:18 | 33.49321 | -112.77223 | 2734 ft | 126 kts | 99° |
| 2026-05-08 04:18 | 33.49248 | -112.76176 | 2741 ft | 127 kts | 89° |
| 2026-05-08 04:18 | 33.49252 | -112.75116 | 2744 ft | 127 kts | 90° |
| 2026-05-08 04:18 | 33.49246 | -112.74050 | 2744 ft | 128 kts | 90° |
| 2026-05-08 04:19 | 33.49246 | -112.72983 | 2742 ft | 128 kts | 90° |
| 2026-05-08 04:19 | 33.49249 | -112.71919 | 2746 ft | 127 kts | 90° |
| 2026-05-08 04:19 | 33.49246 | -112.70891 | 2730 ft | 116 kts | 90° |
| 2026-05-08 04:19 | 33.49240 | -112.69968 | 2721 ft | 105 kts | 89° |
| 2026-05-08 04:20 | 33.49165 | -112.69125 | 2692 ft | 99 kts | 116° |
| 2026-05-08 04:20 | 33.48716 | -112.68591 | 2679 ft | 87 kts | 157° |
| 2026-05-08 04:20 | 33.48192 | -112.68349 | 2619 ft | 82 kts | 176° |
| 2026-05-08 04:20 | 33.47600 | -112.68320 | 2505 ft | 83 kts | 189° |
| 2026-05-08 04:21 | 33.47090 | -112.68365 | 2409 ft | 68 kts | 194° |
| 2026-05-08 04:21 | 33.46621 | -112.68408 | 2279 ft | 68 kts | 192° |
| 2026-05-08 04:21 | 33.46143 | -112.68454 | 2147 ft | 69 kts | 191° |
| 2026-05-08 04:21 | 33.45683 | -112.68479 | 1997 ft | 67 kts | 191° |
| 2026-05-08 04:22 | 33.45214 | -112.68509 | 1796 ft | 67 kts | 188° |
| 2026-05-08 04:22 | 33.44755 | -112.68532 | 1621 ft | 67 kts | 185° |
| 2026-05-08 04:22 | 33.44312 | -112.68540 | 1443 ft | 63 kts | 187° |
| 2026-05-08 04:22 | 33.43865 | -112.68558 | 1276 ft | 61 kts | 187° |
| 2026-05-08 04:23 | 33.43442 | -112.68576 | 1150 ft | 62 kts | 187° |
| 2026-05-08 04:23 | 33.43012 | -112.68593 | 1051 ft | 62 kts | 185° |
| 2026-05-08 04:23 | 33.42675 | -112.68608 | 1031 ft | 35 kts | 191° |
| 2026-05-08 04:23 | 33.42502 | -112.68621 | 1026 ft | 17 kts | 175° |
| 2026-05-08 04:24 | 33.42387 | -112.68618 | 1024 ft | 17 kts | 184° |
| 2026-05-08 04:24 | 33.42212 | -112.68627 | 1017 ft | 25 kts | 181° |
| 2026-05-08 04:24 | 33.42086 | -112.68603 | 1013 ft | 16 kts | 90° |
| 2026-05-08 04:24 | 33.42084 | -112.68466 | 1015 ft | 18 kts | 91° |
| 2026-05-08 04:25 | 33.42031 | -112.68436 | 1014 ft | 2 kts | 104° |
| 2026-05-08 04:25 | 33.42031 | -112.68434 | 1014 ft | 0 kts | 73° |
| 2026-05-08 04:25 | 33.42032 | -112.68423 | 1014 ft | 3 kts | 82° |